createdAt,value
2018-01-20T00:01:35.908Z,6.23
2018-01-20T00:04:02.182Z,6.63
2018-01-20T00:06:28.447Z,7.50
2018-01-20T00:08:55.443Z,5.30
2018-01-20T00:11:40.548Z,5.37
2018-01-20T00:14:07.825Z,5.27
2018-01-20T00:16:34.084Z,5.87
2018-01-20T00:19:00.326Z,5.57
2018-01-20T00:21:27.266Z,6.37
2018-01-20T00:23:53.501Z,6.73
2018-01-20T00:26:25.887Z,5.20
2018-01-20T00:28:52.126Z,4.63
2018-01-20T00:31:18.339Z,4.93
2018-01-20T00:33:44.598Z,5.03
2018-01-20T00:36:11.574Z,5.40
2018-01-20T00:38:44.861Z,5.17
2018-01-20T00:41:11.115Z,5.30
2018-01-20T00:43:37.362Z,4.33
2018-01-20T00:46:03.606Z,4.30
2018-01-20T00:48:30.011Z,3.43
2018-01-20T00:50:56.246Z,4.20
2018-01-20T00:53:22.478Z,3.77
2018-01-20T00:55:48.718Z,3.97
2018-01-20T00:58:14.931Z,3.67
2018-01-20T01:00:41.255Z,4.13
2018-01-20T01:03:07.517Z,4.47
2018-01-20T01:05:33.813Z,3.37
2018-01-20T01:08:00.048Z,4.40
2018-01-20T01:10:26.293Z,4.43
2018-01-20T01:12:52.555Z,4.43
2018-01-20T01:15:19.576Z,4.00
2018-01-20T01:17:45.804Z,4.33
2018-01-20T01:20:12.056Z,4.10
2018-01-20T01:22:39.052Z,2.93
2018-01-20T01:25:05.274Z,3.13
2018-01-20T01:27:31.510Z,2.70
2018-01-20T01:29:57.764Z,3.00
2018-01-20T01:32:23.981Z,2.67
2018-01-20T01:34:50.262Z,2.73
2018-01-20T01:37:16.492Z,2.07
2018-01-20T01:39:43.492Z,2.10
2018-01-20T01:42:09.754Z,3.50
2018-01-20T01:44:36.733Z,2.50
2018-01-20T01:47:03.062Z,2.53
2018-01-20T01:49:29.315Z,2.60
2018-01-20T01:51:55.625Z,2.63
2018-01-20T01:54:21.871Z,2.47
2018-01-20T01:56:48.118Z,2.90
2018-01-20T01:59:14.369Z,2.80
2018-01-20T02:01:40.611Z,1.77
2018-01-20T02:04:06.879Z,2.83
2018-01-20T02:06:33.127Z,2.90
2018-01-20T02:08:59.370Z,2.40
2018-01-20T02:11:25.643Z,3.07
2018-01-20T02:13:52.627Z,3.17
2018-01-20T02:16:18.859Z,2.93
2018-01-20T02:18:45.099Z,4.03
2018-01-20T02:21:11.317Z,3.30
2018-01-20T02:23:37.598Z,3.30
2018-01-20T02:26:04.581Z,3.53
2018-01-20T02:28:30.828Z,3.23
2018-01-20T02:30:57.144Z,3.30
2018-01-20T02:33:23.485Z,3.10
2018-01-20T02:35:49.704Z,3.70
2018-01-20T02:38:15.980Z,3.27
2018-01-20T02:40:43.006Z,3.07
2018-01-20T02:43:09.300Z,4.50
2018-01-20T02:45:35.618Z,6.27
2018-01-20T02:48:01.906Z,5.00
2018-01-20T02:50:28.142Z,4.23
2018-01-20T02:52:54.416Z,3.40
2018-01-20T02:55:20.660Z,3.43
2018-01-20T02:57:47.257Z,3.80
2018-01-20T03:00:14.228Z,3.57
2018-01-20T03:02:40.484Z,2.80
2018-01-20T03:05:06.721Z,3.20
2018-01-20T03:07:32.991Z,2.83
2018-01-20T03:09:59.963Z,2.10
2018-01-20T03:12:27.275Z,4.00
2018-01-20T03:14:55.000Z,2.23
2018-01-20T03:17:21.224Z,2.30
2018-01-20T03:19:47.480Z,2.70
2018-01-20T03:22:13.772Z,1.87
2018-01-20T03:24:40.000Z,2.90
2018-01-20T03:27:06.225Z,2.90
2018-01-20T03:29:32.504Z,2.37
2018-01-20T03:31:58.736Z,2.70
2018-01-20T03:34:25.024Z,3.03
2018-01-20T03:36:51.465Z,3.10
2018-01-20T03:39:17.728Z,3.13
2018-01-20T03:41:43.994Z,2.50
2018-01-20T03:44:10.976Z,2.23
2018-01-20T03:46:37.232Z,2.77
2018-01-20T03:49:03.772Z,3.37
2018-01-20T03:51:30.052Z,2.93
2018-01-20T03:53:56.270Z,2.50
2018-01-20T03:56:22.763Z,2.23
2018-01-20T03:58:49.009Z,3.43
2018-01-20T04:01:15.223Z,2.87
2018-01-20T04:03:41.476Z,3.20
2018-01-20T04:06:08.451Z,2.70
2018-01-20T04:08:34.703Z,2.87
2018-01-20T04:11:00.931Z,2.70
2018-01-20T04:13:27.195Z,2.90
2018-01-20T04:15:53.470Z,3.30
2018-01-20T04:18:19.739Z,2.47
2018-01-20T04:20:47.475Z,3.67
2018-01-20T04:23:13.744Z,3.20
2018-01-20T04:25:39.979Z,3.00
2018-01-20T04:28:06.938Z,3.67
2018-01-20T04:30:33.940Z,3.40
2018-01-20T04:33:00.156Z,3.70
2018-01-20T04:35:26.416Z,3.27
2018-01-20T04:37:52.677Z,3.47
2018-01-20T04:40:19.688Z,4.10
2018-01-20T04:42:45.952Z,4.27
2018-01-20T04:45:12.274Z,3.40
2018-01-20T04:47:39.234Z,3.33
2018-01-20T04:50:06.252Z,3.03
2018-01-20T04:52:32.496Z,3.70
2018-01-20T04:54:59.548Z,4.37
2018-01-20T04:57:26.515Z,3.60
2018-01-20T04:59:52.815Z,3.83
2018-01-20T05:02:19.052Z,3.90
2018-01-20T05:04:46.041Z,3.50
2018-01-20T05:07:12.287Z,3.57
2018-01-20T05:09:38.579Z,4.00
2018-01-20T05:12:04.922Z,3.70
2018-01-20T05:14:31.851Z,5.03
2018-01-20T05:16:58.131Z,4.37
2018-01-20T05:19:24.424Z,4.40
2018-01-20T05:21:50.715Z,4.43
2018-01-20T05:24:16.982Z,4.23
2018-01-20T05:26:43.203Z,3.67
2018-01-20T05:29:09.456Z,4.60
2018-01-20T05:31:35.676Z,3.73
2018-01-20T05:34:02.000Z,5.13
2018-01-20T05:36:28.240Z,3.43
2018-01-20T05:38:54.527Z,4.47
2018-01-20T05:41:21.472Z,3.60
2018-01-20T05:43:48.618Z,4.83
2018-01-20T05:46:14.896Z,4.43
2018-01-20T05:48:41.144Z,4.43
2018-01-20T05:51:07.456Z,4.33
2018-01-20T05:53:33.658Z,3.23
2018-01-20T05:55:59.908Z,4.70
2018-01-20T05:58:26.195Z,4.43
2018-01-20T06:00:52.441Z,4.70
2018-01-20T06:03:18.668Z,5.00
2018-01-20T06:05:45.659Z,4.77
2018-01-20T06:08:12.955Z,4.50
2018-01-20T06:10:39.215Z,5.20
2018-01-20T06:13:05.457Z,5.10
2018-01-20T06:15:31.725Z,4.53
2018-01-20T06:17:57.969Z,5.50
2018-01-20T06:20:24.189Z,4.60
2018-01-20T06:22:50.549Z,5.00
2018-01-20T06:25:17.609Z,4.70
2018-01-20T06:27:43.843Z,6.40
2018-01-20T06:30:10.390Z,8.07
2018-01-20T06:32:36.596Z,6.70
2018-01-20T06:35:03.581Z,7.20
2018-01-20T06:37:29.844Z,5.63
2018-01-20T06:39:56.095Z,5.50
2018-01-20T06:42:23.052Z,5.50
2018-01-20T06:44:49.334Z,4.63
2018-01-20T06:47:15.668Z,5.20
2018-01-20T06:49:42.096Z,4.57
2018-01-20T06:52:08.611Z,4.97
2018-01-20T06:54:35.044Z,4.40
2018-01-20T06:57:01.451Z,5.43
2018-01-20T06:59:27.872Z,4.63
2018-01-20T07:01:54.598Z,4.83
2018-01-20T07:04:21.631Z,7.40
2018-01-20T07:06:48.013Z,5.60
2018-01-20T07:09:14.244Z,4.70
2018-01-20T07:11:40.581Z,5.03
2018-01-20T07:14:06.851Z,5.17
2018-01-20T07:16:33.227Z,5.10
2018-01-20T07:18:59.523Z,4.90
2018-01-20T07:21:25.828Z,4.90
2018-01-20T07:23:52.119Z,5.40
2018-01-20T07:26:18.347Z,6.27
2018-01-20T07:28:44.675Z,6.07
2018-01-20T07:31:10.883Z,4.90
2018-01-20T07:33:37.872Z,5.40
2018-01-20T07:36:04.164Z,5.20
2018-01-20T07:38:30.906Z,4.47
2018-01-20T07:40:58.338Z,4.60
2018-01-20T07:43:24.604Z,4.53
2018-01-20T07:45:51.694Z,5.73
2018-01-20T07:48:17.967Z,3.93
2018-01-20T07:50:44.290Z,4.23
2018-01-20T07:53:11.284Z,4.53
2018-01-20T07:55:37.563Z,3.77
2018-01-20T07:58:04.118Z,4.10
2018-01-20T08:00:31.083Z,3.87
2018-01-20T08:02:57.305Z,3.23
2018-01-20T08:05:23.675Z,3.10
2018-01-20T08:07:50.911Z,2.50
2018-01-20T08:10:17.229Z,4.50
2018-01-20T08:12:43.661Z,3.87
2018-01-20T08:15:09.915Z,4.00
2018-01-20T08:17:36.247Z,3.73
2018-01-20T08:20:02.501Z,4.30
2018-01-20T08:22:28.744Z,4.80
2018-01-20T08:24:55.140Z,4.17
2018-01-20T08:27:21.724Z,4.00
2018-01-20T08:29:48.732Z,4.10
2018-01-20T08:32:15.073Z,3.90
2018-01-20T08:34:41.331Z,3.93
2018-01-20T08:37:07.604Z,6.30
2018-01-20T08:39:33.840Z,4.50
2018-01-20T08:42:00.153Z,3.40
2018-01-20T08:44:26.405Z,3.33
2018-01-20T08:46:52.764Z,3.83
2018-01-20T08:49:19.045Z,4.60
2018-01-20T08:51:45.338Z,3.70
2018-01-20T08:54:11.613Z,3.13
2018-01-20T08:56:37.939Z,2.63
2018-01-20T08:59:04.323Z,3.17
2018-01-20T09:01:30.689Z,3.33
2018-01-20T09:03:56.963Z,2.80
2018-01-20T09:06:23.289Z,2.83
2018-01-20T09:08:49.581Z,3.30
2018-01-20T09:11:15.871Z,2.93
2018-01-20T09:13:42.529Z,2.50
2018-01-20T09:16:09.808Z,3.07
2018-01-20T09:18:36.340Z,1.90
2018-01-20T09:21:02.614Z,2.23
2018-01-20T09:23:28.874Z,2.23
2018-01-20T09:25:55.880Z,2.70
2018-01-20T09:28:22.384Z,3.20
2018-01-20T09:30:48.752Z,2.20
2018-01-20T09:33:15.240Z,3.10
2018-01-20T09:35:42.297Z,1.93
2018-01-20T09:38:08.621Z,2.40
2018-01-20T09:40:35.729Z,2.03
2018-01-20T09:43:02.116Z,2.13
2018-01-20T09:45:28.375Z,2.47
2018-01-20T09:47:54.660Z,2.63
2018-01-20T09:50:21.802Z,2.27
2018-01-20T09:52:48.821Z,2.40
2018-01-20T09:55:15.142Z,2.30
2018-01-20T09:57:41.430Z,2.10
2018-01-20T10:00:07.695Z,2.17
2018-01-20T10:02:33.963Z,1.87
2018-01-20T10:05:00.249Z,2.53
2018-01-20T10:07:27.300Z,2.50
2018-01-20T10:09:53.579Z,1.50
2018-01-20T10:12:21.612Z,2.27
2018-01-20T10:14:47.856Z,1.70
2018-01-20T10:17:14.123Z,2.27
2018-01-20T10:19:41.992Z,2.17
2018-01-20T10:22:08.272Z,2.50
2018-01-20T10:24:34.522Z,2.77
2018-01-20T10:27:00.798Z,2.40
2018-01-20T10:29:27.033Z,1.77
2018-01-20T10:31:53.298Z,2.07
2018-01-20T10:34:19.574Z,2.30
2018-01-20T10:36:45.844Z,2.53
2018-01-20T10:39:12.105Z,1.93
2018-01-20T10:41:38.368Z,2.00
2018-01-20T10:44:04.624Z,2.07
2018-01-20T10:46:30.829Z,1.70
2018-01-20T10:48:57.153Z,1.53
2018-01-20T10:51:23.473Z,1.83
2018-01-20T10:53:51.473Z,1.57
2018-01-20T10:56:18.363Z,1.87
2018-01-20T10:58:44.641Z,2.13
2018-01-20T11:01:11.032Z,1.77
2018-01-20T11:03:38.028Z,2.40
2018-01-20T11:06:04.309Z,2.00
2018-01-20T11:08:30.595Z,2.00
2018-01-20T11:10:56.868Z,2.50
2018-01-20T11:13:23.180Z,1.80
2018-01-20T11:15:49.428Z,1.60
2018-01-20T11:18:15.728Z,2.10
2018-01-20T11:20:41.964Z,1.67
2018-01-20T11:23:08.239Z,1.80
2018-01-20T11:25:35.207Z,1.80
2018-01-20T11:28:01.517Z,1.43
2018-01-20T11:30:29.318Z,2.10
2018-01-20T11:32:55.619Z,1.90
2018-01-20T11:35:21.945Z,1.37
2018-01-20T11:37:48.235Z,1.70
2018-01-20T11:40:14.489Z,1.57
2018-01-20T11:42:40.781Z,2.00
2018-01-20T11:45:07.219Z,1.57
2018-01-20T11:47:33.473Z,2.20
2018-01-20T11:49:59.881Z,1.50
2018-01-20T11:52:26.291Z,2.20
2018-01-20T11:54:52.555Z,2.03
2018-01-20T11:57:18.799Z,1.47
2018-01-20T11:59:45.888Z,1.53
2018-01-20T12:02:12.185Z,1.50
2018-01-20T12:04:39.285Z,1.20
2018-01-20T12:07:05.553Z,1.50
2018-01-20T12:09:31.806Z,1.43
2018-01-20T12:11:59.840Z,1.67
2018-01-20T12:14:26.133Z,1.20
2018-01-20T12:16:52.422Z,1.37
2018-01-20T12:19:19.560Z,1.63
2018-01-20T12:21:45.910Z,1.73
2018-01-20T12:24:12.914Z,1.70
2018-01-20T12:26:39.205Z,1.50
2018-01-20T12:29:05.498Z,1.20
2018-01-20T12:31:31.810Z,1.20
2018-01-20T12:33:58.074Z,1.63
2018-01-20T12:36:25.341Z,1.50
2018-01-20T12:38:51.710Z,1.37
2018-01-20T12:41:18.015Z,1.67
2018-01-20T12:43:44.401Z,1.40
2018-01-20T12:46:10.672Z,1.17
2018-01-20T12:48:37.865Z,1.30
2018-01-20T12:51:04.515Z,1.30
2018-01-20T12:53:30.983Z,1.57
2018-01-20T12:55:58.275Z,1.70
2018-01-20T12:58:24.618Z,1.63
2018-01-20T13:00:51.040Z,1.10
2018-01-20T13:03:17.367Z,1.80
2018-01-20T13:05:44.371Z,1.73
2018-01-20T13:08:11.434Z,1.70
2018-01-20T13:10:38.504Z,1.87
2018-01-20T13:13:04.852Z,1.97
2018-01-20T13:15:31.151Z,1.73
2018-01-20T13:17:57.440Z,2.60
2018-01-20T13:20:23.716Z,2.30
2018-01-20T13:22:50.059Z,1.67
2018-01-20T13:25:16.385Z,2.10
2018-01-20T13:27:42.639Z,2.20
2018-01-20T13:30:08.947Z,2.40
2018-01-20T13:32:35.241Z,5.67
2018-01-20T13:35:01.557Z,4.60
2018-01-20T13:37:27.915Z,2.70
2018-01-20T13:39:54.940Z,4.37
2018-01-20T13:42:29.037Z,3.40
2018-01-20T13:44:55.323Z,3.50
2018-01-20T13:47:21.660Z,5.00
2018-01-20T13:49:48.664Z,4.47
2018-01-20T13:52:14.946Z,4.47
2018-01-20T13:54:41.327Z,6.70
2018-01-20T13:57:07.605Z,2.40
2018-01-20T13:59:33.849Z,5.10
2018-01-20T14:02:01.096Z,4.80
2018-01-20T14:04:27.335Z,3.53
2018-01-20T14:06:53.635Z,3.50
2018-01-20T14:09:20.821Z,2.93
2018-01-20T14:11:47.144Z,3.60
2018-01-20T14:14:13.405Z,4.60
2018-01-20T14:16:41.164Z,3.63
2018-01-20T14:19:07.476Z,3.53
2018-01-20T14:21:33.693Z,4.43
2018-01-20T14:23:59.952Z,3.57
2018-01-20T14:26:26.269Z,3.83
2018-01-20T14:28:52.662Z,2.77
2018-01-20T14:31:18.928Z,3.37
2018-01-20T14:33:45.209Z,2.73
2018-01-20T14:36:12.253Z,2.23
2018-01-20T14:38:39.283Z,3.40
2018-01-20T14:41:05.584Z,2.70
2018-01-20T14:43:31.835Z,1.63
2018-01-20T14:45:58.067Z,1.67
2018-01-20T14:48:24.433Z,2.60
2018-01-20T14:50:51.571Z,2.07
2018-01-20T14:53:18.580Z,1.80
2018-01-20T14:55:45.283Z,1.80
2018-01-20T14:58:11.555Z,2.00
2018-01-20T15:00:37.788Z,2.30
2018-01-20T15:03:04.036Z,2.97
2018-01-20T15:05:30.332Z,2.80
2018-01-20T15:07:56.564Z,2.90
2018-01-20T15:10:22.859Z,3.20
2018-01-20T15:12:49.088Z,3.73
2018-01-20T15:15:15.390Z,6.63
2018-01-20T15:17:42.390Z,4.47
2018-01-20T15:20:08.615Z,4.00
2018-01-20T15:22:35.526Z,3.43
2018-01-20T15:25:02.496Z,4.73
2018-01-20T15:27:28.764Z,3.77
2018-01-20T15:29:54.994Z,4.23
2018-01-20T15:32:21.273Z,4.40
2018-01-20T15:34:47.515Z,5.47
2018-01-20T15:37:13.830Z,5.20
2018-01-20T15:39:40.134Z,3.87
2018-01-20T15:42:06.428Z,5.37
2018-01-20T15:44:32.729Z,4.97
2018-01-20T15:46:59.003Z,3.80
2018-01-20T15:49:25.295Z,4.40
2018-01-20T15:51:51.668Z,4.27
2018-01-20T15:54:18.727Z,4.70
2018-01-20T15:56:45.028Z,5.20
2018-01-20T15:59:11.360Z,5.27
2018-01-20T16:01:37.627Z,6.03
2018-01-20T16:04:03.954Z,6.27
2018-01-20T16:06:30.241Z,4.73
2018-01-20T16:08:56.511Z,5.33
2018-01-20T16:11:22.858Z,4.40
2018-01-20T16:13:49.968Z,5.17
2018-01-20T16:16:16.399Z,5.70
2018-01-20T16:18:42.726Z,6.80
2018-01-20T16:21:09.030Z,7.30
2018-01-20T16:23:36.309Z,5.77
2018-01-20T16:26:02.588Z,6.37
2018-01-20T16:28:29.638Z,6.37
2018-01-20T16:30:56.732Z,8.83
2018-01-20T16:33:23.089Z,8.37
2018-01-20T16:35:49.469Z,10.10
2018-01-20T16:38:16.049Z,9.67
2018-01-20T16:40:42.336Z,9.80
2018-01-20T16:43:08.628Z,11.57
2018-01-20T16:45:34.989Z,16.30
2018-01-20T16:48:01.348Z,13.80
2018-01-20T16:50:27.611Z,18.53
2018-01-20T16:52:53.936Z,28.20
2018-01-20T16:55:20.155Z,28.23
2018-01-20T16:57:46.423Z,20.03
2018-01-20T17:00:20.440Z,19.10
2018-01-20T17:02:47.455Z,18.17
2018-01-20T17:05:14.626Z,20.53
2018-01-20T17:07:40.857Z,18.90
2018-01-20T17:10:07.145Z,18.13
2018-01-20T17:12:33.465Z,16.40
2018-01-20T17:14:59.897Z,12.70
2018-01-20T17:17:26.201Z,14.77
2018-01-20T17:19:53.278Z,14.10
2018-01-20T17:22:19.675Z,12.23
2018-01-20T17:24:46.743Z,13.77
2018-01-20T17:27:13.134Z,14.57
2018-01-20T17:29:39.540Z,13.13
2018-01-20T17:32:05.822Z,12.93
2018-01-20T17:34:33.060Z,9.80
2018-01-20T17:36:59.550Z,9.40
2018-01-20T17:39:25.862Z,9.80
2018-01-20T17:41:52.171Z,12.30
2018-01-20T17:44:19.262Z,11.40
2018-01-20T17:46:45.528Z,12.10
2018-01-20T17:49:11.779Z,11.53
2018-01-20T17:51:38.821Z,12.10
2018-01-20T17:54:05.842Z,12.50
2018-01-20T17:56:32.100Z,10.63
2018-01-20T17:58:59.083Z,10.87
2018-01-20T18:01:25.363Z,10.53
2018-01-20T18:03:51.625Z,9.20
2018-01-20T18:06:17.900Z,10.00
2018-01-20T18:08:44.138Z,10.63
2018-01-20T18:11:10.414Z,11.00
2018-01-20T18:13:36.660Z,10.00
2018-01-20T18:16:02.919Z,9.43
2018-01-20T18:18:29.183Z,10.13
2018-01-20T18:20:56.220Z,10.27
2018-01-20T18:23:22.486Z,10.70
2018-01-20T18:25:48.835Z,10.47
2018-01-20T18:28:15.099Z,10.27
2018-01-20T18:30:41.399Z,10.30
2018-01-20T18:33:07.738Z,11.23
2018-01-20T18:35:34.040Z,11.93
2018-01-20T18:38:00.328Z,11.33
2018-01-20T18:40:27.372Z,11.90
2018-01-20T18:42:53.747Z,12.20
2018-01-20T18:45:20.012Z,12.97
2018-01-20T18:47:46.319Z,13.70
2018-01-20T18:50:12.624Z,14.70
2018-01-20T18:52:39.652Z,15.20
2018-01-20T18:55:06.156Z,15.00
2018-01-20T18:57:39.395Z,14.13
2018-01-20T19:00:05.725Z,15.87
2018-01-20T19:02:32.708Z,14.40
2018-01-20T19:04:59.009Z,14.70
2018-01-20T19:07:25.996Z,15.10
2018-01-20T19:09:52.278Z,15.67
2018-01-20T19:12:19.298Z,14.33
2018-01-20T19:14:47.048Z,16.40
2018-01-20T19:17:13.377Z,19.60
2018-01-20T19:19:39.674Z,15.83
2018-01-20T19:22:05.974Z,15.30
2018-01-20T19:24:33.707Z,16.47
2018-01-20T19:26:59.968Z,15.77
2018-01-20T19:29:26.941Z,16.70
2018-01-20T19:31:53.188Z,16.70
2018-01-20T19:34:19.503Z,16.37
2018-01-20T19:36:52.712Z,15.93
2018-01-20T19:39:18.996Z,16.70
2018-01-20T19:41:46.010Z,16.23
2018-01-20T19:44:12.303Z,16.43
2018-01-20T19:46:38.590Z,15.63
2018-01-20T19:49:04.889Z,14.87
2018-01-20T19:51:31.189Z,15.40
2018-01-20T19:53:57.489Z,15.70
2018-01-20T19:56:23.809Z,15.93
2018-01-20T19:58:50.093Z,15.40
2018-01-20T20:01:16.381Z,16.07
2018-01-20T20:03:42.631Z,15.30
2018-01-20T20:06:09.867Z,15.27
2018-01-20T20:08:36.866Z,16.70
2018-01-20T20:11:03.119Z,15.77
2018-01-20T20:13:29.424Z,15.27
2018-01-20T20:15:56.024Z,16.70
2018-01-20T20:18:23.048Z,15.20
2018-01-20T20:20:49.316Z,15.70
2018-01-20T20:23:15.676Z,14.80
2018-01-20T20:25:41.980Z,16.30
2018-01-20T20:28:09.028Z,14.80
2018-01-20T20:30:35.303Z,16.10
2018-01-20T20:33:01.596Z,15.60
2018-01-20T20:35:27.871Z,16.17
2018-01-20T20:37:54.243Z,15.37
2018-01-20T20:40:20.502Z,17.13
2018-01-20T20:42:46.779Z,17.57
2018-01-20T20:45:13.002Z,16.97
2018-01-20T20:47:39.298Z,18.27
2018-01-20T20:50:05.601Z,19.07
2018-01-20T20:52:31.965Z,17.40
2018-01-20T20:54:58.216Z,16.17
2018-01-20T20:57:25.155Z,17.40
2018-01-20T20:59:51.440Z,17.17
2018-01-20T21:02:17.886Z,16.80
2018-01-20T21:04:44.760Z,18.00
2018-01-20T21:07:11.135Z,15.60
2018-01-20T21:09:37.722Z,15.67
2018-01-20T21:12:04.154Z,16.10
2018-01-20T21:14:30.633Z,15.87
2018-01-20T21:16:57.608Z,17.37
2018-01-20T21:19:24.020Z,15.80
2018-01-20T21:21:50.997Z,16.67
2018-01-20T21:24:17.500Z,15.53
2018-01-20T21:26:45.148Z,17.53
2018-01-20T21:29:12.621Z,16.30
2018-01-20T21:31:39.876Z,15.50
2018-01-20T21:34:06.966Z,15.20
2018-01-20T21:36:33.230Z,15.23
2018-01-20T21:38:59.511Z,15.17
2018-01-20T21:41:25.781Z,16.83
2018-01-20T21:43:52.040Z,14.80
2018-01-20T21:46:19.276Z,14.57
2018-01-20T21:48:45.567Z,13.70
2018-01-20T21:51:11.923Z,17.53
2018-01-20T21:53:38.314Z,16.20
2018-01-20T21:56:04.634Z,15.80
2018-01-20T21:58:30.936Z,16.80
2018-01-20T22:00:58.052Z,16.60
2018-01-20T22:03:24.345Z,17.33
2018-01-20T22:05:50.645Z,16.50
2018-01-20T22:08:17.632Z,18.10
2018-01-20T22:10:43.919Z,19.00
2018-01-20T22:13:10.178Z,18.07
2018-01-20T22:15:36.520Z,17.43
2018-01-20T22:18:02.786Z,17.80
2018-01-20T22:20:29.064Z,15.43
2018-01-20T22:22:56.092Z,15.83
2018-01-20T22:25:23.249Z,16.83
2018-01-20T22:27:50.281Z,16.87
2018-01-20T22:30:16.576Z,15.20
2018-01-20T22:32:42.822Z,15.93
2018-01-20T22:35:09.099Z,15.30
2018-01-20T22:37:35.356Z,15.67
2018-01-20T22:40:01.621Z,16.43
2018-01-20T22:42:27.921Z,14.53
2018-01-20T22:44:54.852Z,15.80
2018-01-20T22:47:21.096Z,17.20
2018-01-20T22:49:47.398Z,14.17
2018-01-20T22:52:13.689Z,16.30
2018-01-20T22:54:39.960Z,15.00
2018-01-20T22:57:07.132Z,16.20
2018-01-20T22:59:33.443Z,13.90
2018-01-20T23:02:00.720Z,17.10
2018-01-20T23:04:26.941Z,15.50
2018-01-20T23:06:53.217Z,16.77
2018-01-20T23:09:19.494Z,15.43
2018-01-20T23:11:45.736Z,16.07
2018-01-20T23:14:11.968Z,15.50
2018-01-20T23:16:38.200Z,14.10
2018-01-20T23:19:05.356Z,16.77
2018-01-20T23:21:31.720Z,16.30
2018-01-20T23:23:58.071Z,15.83
2018-01-20T23:26:25.049Z,15.77
2018-01-20T23:28:51.287Z,15.70
2018-01-20T23:31:17.496Z,16.57
2018-01-20T23:33:43.718Z,16.17
2018-01-20T23:36:10.011Z,17.10
2018-01-20T23:38:36.246Z,16.97
2018-01-20T23:41:03.239Z,15.40
2018-01-20T23:43:29.489Z,15.73
2018-01-20T23:45:56.679Z,17.70
2018-01-20T23:48:24.582Z,15.50
2018-01-20T23:50:50.792Z,18.40
2018-01-20T23:53:17.080Z,18.87
2018-01-20T23:55:43.321Z,18.53
2018-01-20T23:58:09.599Z,16.97
